Time;durP1;ratioP1;P1;durP2;ratioP2;P2;SDS_P1;SDS_P2;PMS_P1;PMS_P2;Temp;Humidity;BMP_temperature;BMP_pressure;BME280_temperature;BME280_humidity;BME280_pressure;Samples;Min_cycle;Max_cycle;Signal;HPM_P1;HPM_P2
2023/06/10 00:02:01;;;;;;;12.60;9.07;;;;;;;;;;5057427;28;20051;-80
2023/06/10 00:04:28;;;;;;;15.18;8.98;;;;;;;;;;5059772;28;20041;-81
2023/06/10 00:06:55;;;;;;;16.30;10.00;;;;;;;;;;5061628;28;20049;-82
2023/06/10 00:09:22;;;;;;;14.82;9.85;;;;;;;;;;5062245;28;20041;-82
2023/06/10 00:11:49;;;;;;;16.67;10.00;;;;;;;;;;5058698;28;20068;-83
2023/06/10 00:14:16;;;;;;;18.02;9.77;;;;;;;;;;5062983;28;20056;-83
2023/06/10 00:16:44;;;;;;;17.35;9.13;;;;;;;;;;5058710;28;20041;-82
2023/06/10 00:19:13;;;;;;;18.30;10.15;;;;;;;;;;5054651;28;20299;-82
2023/06/10 00:21:40;;;;;;;15.07;9.73;;;;;;;;;;5053192;28;20417;-82
2023/06/10 00:24:11;;;;;;;18.38;9.80;;;;;;;;;;5038304;28;20071;-81
2023/06/10 00:26:39;;;;;;;17.02;9.55;;;;;;;;;;5057552;28;20405;-81
2023/06/10 00:29:06;;;;;;;12.52;8.75;;;;;;;;;;5053563;28;20064;-80
2023/06/10 00:31:37;;;;;;;14.95;8.52;;;;;;;;;;5051517;28;20132;-82
2023/06/10 00:34:07;;;;;;;14.30;9.27;;;;;;;;;;5052802;28;20164;-81
2023/06/10 00:36:33;;;;;;;16.63;8.88;;;;;;;;;;5052791;28;20481;-81
2023/06/10 00:39:00;;;;;;;13.75;8.63;;;;;;;;;;5053578;28;20057;-81
2023/06/10 00:41:27;;;;;;;18.23;9.18;;;;;;;;;;5050058;28;20045;-82
2023/06/10 00:43:53;;;;;;;16.00;9.73;;;;;;;;;;5053273;28;20057;-81
2023/06/10 00:46:21;;;;;;;20.95;9.65;;;;;;;;;;5053189;28;20566;-80
2023/06/10 00:48:48;;;;;;;16.20;9.43;;;;;;;;;;5052333;28;20048;-81
2023/06/10 00:51:15;;;;;;;12.95;9.45;;;;;;;;;;5052755;28;20136;-82
2023/06/10 00:53:45;;;;;;;18.70;10.18;;;;;;;;;;5070920;28;20056;-82
2023/06/10 00:56:13;;;;;;;19.70;10.55;;;;;;;;;;5067943;28;20037;-82
2023/06/10 00:58:40;;;;;;;15.90;9.98;;;;;;;;;;5052638;28;20103;-80
2023/06/10 01:01:10;;;;;;;15.52;10.30;;;;;;;;;;5052535;28;20233;-82
2023/06/10 01:03:38;;;;;;;15.27;10.88;;;;;;;;;;5052346;28;20052;-81
2023/06/10 01:06:25;;;;;;;15.23;10.32;;;;;;;;;;5053936;28;20107;-82
2023/06/10 01:08:54;;;;;;;19.20;11.40;;;;;;;;;;5056535;28;20049;-81
2023/06/10 01:11:28;;;;;;;17.63;10.27;;;;;;;;;;5061058;28;20045;-80
2023/06/10 01:13:55;;;;;;;17.25;10.60;;;;;;;;;;5063201;28;20057;-82
2023/06/10 01:16:23;;;;;;;18.23;11.63;;;;;;;;;;5061214;28;20118;-82
2023/06/10 01:18:50;;;;;;;15.88;10.55;;;;;;;;;;5057379;28;20045;-80
2023/06/10 01:21:20;;;;;;;20.48;11.13;;;;;;;;;;5053913;28;20503;-81
2023/06/10 01:23:50;;;;;;;24.38;10.43;;;;;;;;;;5035314;28;20067;-81
2023/06/10 01:26:17;;;;;;;17.65;10.30;;;;;;;;;;5053032;28;20106;-82
2023/06/10 01:28:46;;;;;;;16.48;9.77;;;;;;;;;;5050671;28;20092;-81
2023/06/10 01:31:39;;;;;;;17.95;9.90;;;;;;;;;;5031506;28;20497;-82
2023/06/10 01:34:08;;;;;;;20.52;11.57;;;;;;;;;;5029071;28;20057;-81
2023/06/10 01:36:36;;;;;;;20.50;11.45;;;;;;;;;;5034290;28;20041;-81
2023/06/10 01:39:04;;;;;;;19.52;12.13;;;;;;;;;;5052163;28;20075;-81
2023/06/10 01:41:31;;;;;;;23.13;12.63;;;;;;;;;;5050805;28;20397;-80
2023/06/10 01:43:58;;;;;;;18.48;12.35;;;;;;;;;;5052968;28;20041;-81
2023/06/10 01:46:33;;;;;;;23.75;12.55;;;;;;;;;;5050805;28;20041;-80
2023/06/10 01:49:00;;;;;;;16.00;11.80;;;;;;;;;;5053608;28;20072;-81
2023/06/10 01:51:27;;;;;;;17.38;11.55;;;;;;;;;;5051144;28;20472;-81
2023/06/10 01:53:56;;;;;;;19.60;12.95;;;;;;;;;;5064084;28;20460;-81
2023/06/10 01:56:27;;;;;;;20.52;12.35;;;;;;;;;;5056699;28;20094;-82
2023/06/10 01:58:58;;;;;;;18.23;11.85;;;;;;;;;;5074103;28;20049;-81
2023/06/10 02:01:28;;;;;;;20.75;12.50;;;;;;;;;;5072176;28;20120;-83
2023/06/10 02:04:07;;;;;;;18.92;12.77;;;;;;;;;;5074275;28;20060;-81
2023/06/10 02:06:35;;;;;;;21.50;11.85;;;;;;;;;;5057593;28;20123;-82
2023/06/10 02:09:02;;;;;;;19.30;11.82;;;;;;;;;;5073155;28;20044;-80
2023/06/10 02:11:29;;;;;;;18.63;10.80;;;;;;;;;;5067907;28;20135;-79
2023/06/10 02:13:55;;;;;;;19.25;11.50;;;;;;;;;;5069084;28;20872;-81
2023/06/10 02:16:22;;;;;;;16.27;11.55;;;;;;;;;;5069237;28;20051;-81
2023/06/10 02:18:49;;;;;;;16.35;12.27;;;;;;;;;;5069302;28;20112;-80
2023/06/10 02:21:15;;;;;;;19.85;12.88;;;;;;;;;;5067637;28;20048;-81
2023/06/10 02:23:42;;;;;;;20.23;12.73;;;;;;;;;;5072168;28;20047;-81
2023/06/10 02:26:08;;;;;;;21.50;12.98;;;;;;;;;;5073313;28;20053;-82
2023/06/10 02:28:35;;;;;;;19.30;12.98;;;;;;;;;;5076552;28;20048;-81
2023/06/10 02:31:05;;;;;;;20.73;13.88;;;;;;;;;;5073448;28;20074;-80
2023/06/10 02:33:33;;;;;;;20.02;15.00;;;;;;;;;;5073828;28;20582;-81
2023/06/10 02:36:00;;;;;;;19.23;13.93;;;;;;;;;;5076553;28;20425;-82
2023/06/10 02:38:30;;;;;;;23.83;14.45;;;;;;;;;;5079196;28;20048;-82
2023/06/10 02:40:58;;;;;;;21.25;14.27;;;;;;;;;;5059447;28;20044;-81
2023/06/10 02:43:30;;;;;;;22.15;14.93;;;;;;;;;;5077987;28;20408;-82
2023/06/10 02:45:57;;;;;;;21.83;14.77;;;;;;;;;;5076975;28;20112;-82
2023/06/10 02:48:24;;;;;;;23.10;14.73;;;;;;;;;;5073939;28;20123;-79
2023/06/10 02:50:51;;;;;;;19.80;13.25;;;;;;;;;;5072705;28;20036;-82
2023/06/10 02:53:24;;;;;;;23.90;14.05;;;;;;;;;;5070240;28;20112;-81
2023/06/10 02:55:58;;;;;;;22.17;15.45;;;;;;;;;;5059270;28;20041;-81
2023/06/10 02:58:26;;;;;;;23.23;15.25;;;;;;;;;;5074654;28;20051;-81
2023/06/10 03:00:54;;;;;;;23.48;14.88;;;;;;;;;;5056715;28;20082;-79
2023/06/10 03:03:22;;;;;;;28.05;14.90;;;;;;;;;;5073648;28;20389;-82
2023/06/10 03:05:59;;;;;;;22.20;14.05;;;;;;;;;;5074325;28;20120;-82
2023/06/10 03:08:30;;;;;;;18.95;13.57;;;;;;;;;;5073407;28;20580;-82
2023/06/10 03:11:00;;;;;;;22.10;13.27;;;;;;;;;;5072775;28;20048;-82
2023/06/10 03:13:28;;;;;;;18.83;13.40;;;;;;;;;;5073149;28;20127;-82
2023/06/10 03:15:57;;;;;;;15.80;11.65;;;;;;;;;;5055699;28;20040;-81
2023/06/10 03:18:26;;;;;;;23.23;11.20;;;;;;;;;;5071655;28;20496;-81
2023/06/10 03:20:53;;;;;;;19.70;11.30;;;;;;;;;;5071479;28;20078;-81
2023/06/10 03:23:22;;;;;;;15.65;10.70;;;;;;;;;;5072504;28;20044;-81
2023/06/10 03:25:49;;;;;;;16.40;11.15;;;;;;;;;;5071858;28;20044;-81
2023/06/10 03:28:18;;;;;;;17.38;11.23;;;;;;;;;;5056365;28;20114;-81
2023/06/10 03:30:44;;;;;;;18.58;11.73;;;;;;;;;;5054811;28;20040;-82
2023/06/10 03:33:12;;;;;;;19.17;11.50;;;;;;;;;;5070521;28;20460;-82
2023/06/10 03:35:39;;;;;;;20.80;12.70;;;;;;;;;;5071839;28;20033;-80
2023/06/10 03:38:06;;;;;;;17.35;12.63;;;;;;;;;;5058976;28;20036;-81
2023/06/10 03:40:40;;;;;;;20.60;12.57;;;;;;;;;;5074151;28;20044;-80
2023/06/10 03:43:06;;;;;;;18.27;12.23;;;;;;;;;;5074449;28;20330;-82
2023/06/10 03:45:34;;;;;;;16.23;11.40;;;;;;;;;;5074202;28;20040;-81
2023/06/10 03:48:01;;;;;;;16.58;11.18;;;;;;;;;;5071936;28;20044;-83
2023/06/10 03:50:41;;;;;;;23.10;11.80;;;;;;;;;;5070460;28;20040;-81
2023/06/10 03:53:14;;;;;;;16.60;11.30;;;;;;;;;;5064497;28;20040;-81
2023/06/10 03:55:42;;;;;;;19.05;11.20;;;;;;;;;;5040132;28;20136;-81
2023/06/10 03:58:09;;;;;;;15.30;11.25;;;;;;;;;;5071986;28;20040;-80
2023/06/10 04:00:41;;;;;;;15.23;10.30;;;;;;;;;;5072167;28;20044;-80
2023/06/10 04:03:09;;;;;;;18.95;11.60;;;;;;;;;;5074769;28;20055;-80
2023/06/10 04:05:44;;;;;;;15.52;10.95;;;;;;;;;;5072964;28;20032;-82
2023/06/10 04:08:16;;;;;;;17.50;11.43;;;;;;;;;;5057905;28;20043;-82
2023/06/10 04:10:43;;;;;;;16.17;11.60;;;;;;;;;;5071593;28;20124;-81
2023/06/10 04:13:10;;;;;;;17.85;12.80;;;;;;;;;;5055066;28;20400;-82
2023/06/10 04:15:44;;;;;;;29.10;12.90;;;;;;;;;;5055269;28;20037;-81
2023/06/10 04:18:15;;;;;;;21.35;13.25;;;;;;;;;;5070243;28;20068;-82
2023/06/10 04:20:44;;;;;;;19.20;12.10;;;;;;;;;;5069764;28;20437;-79
2023/06/10 04:23:14;;;;;;;19.48;12.82;;;;;;;;;;5070690;28;20053;-81
2023/06/10 04:25:43;;;;;;;15.88;11.45;;;;;;;;;;5071168;28;20029;-80
2023/06/10 04:28:11;;;;;;;19.20;12.60;;;;;;;;;;5069770;28;20504;-82
2023/06/10 04:30:37;;;;;;;19.33;12.63;;;;;;;;;;5070500;28;20045;-80
2023/06/10 04:33:06;;;;;;;20.60;13.73;;;;;;;;;;5070979;28;20543;-81
2023/06/10 04:35:33;;;;;;;22.60;13.15;;;;;;;;;;5070315;28;20120;-81
2023/06/10 04:38:03;;;;;;;17.95;13.65;;;;;;;;;;5070983;28;20045;-82
2023/06/10 04:40:30;;;;;;;22.45;13.15;;;;;;;;;;5069798;28;20520;-81
2023/06/10 04:42:56;;;;;;;19.50;13.32;;;;;;;;;;5053945;28;20060;-82
2023/06/10 04:45:23;;;;;;;20.02;13.45;;;;;;;;;;5070699;28;20040;-81
2023/06/10 04:47:50;;;;;;;19.65;13.20;;;;;;;;;;5070594;28;20044;-83
2023/06/10 04:50:19;;;;;;;21.17;13.38;;;;;;;;;;5063749;28;20405;-83
2023/06/10 04:52:46;;;;;;;17.60;12.32;;;;;;;;;;5060634;28;20037;-81
2023/06/10 04:55:13;;;;;;;21.25;13.35;;;;;;;;;;5064287;28;20552;-82
2023/06/10 04:57:39;;;;;;;18.98;12.65;;;;;;;;;;5060014;28;20044;-82
2023/06/10 05:00:06;;;;;;;15.57;11.73;;;;;;;;;;5060741;28;20134;-82
2023/06/10 05:02:33;;;;;;;16.60;12.20;;;;;;;;;;5065723;28;20062;-81
2023/06/10 05:05:00;;;;;;;20.08;11.80;;;;;;;;;;5060370;28;20067;-82
2023/06/10 05:07:27;;;;;;;16.95;12.25;;;;;;;;;;5062116;28;20040;-82
2023/06/10 05:09:53;;;;;;;23.65;12.38;;;;;;;;;;5059301;28;20053;-82
2023/06/10 05:12:20;;;;;;;18.48;12.35;;;;;;;;;;5069199;28;20365;-81
2023/06/10 05:14:46;;;;;;;18.27;11.85;;;;;;;;;;5068367;28;20070;-79
2023/06/10 05:17:13;;;;;;;16.95;12.45;;;;;;;;;;5071712;28;20665;-80
2023/06/10 05:19:41;;;;;;;17.15;11.50;;;;;;;;;;5074269;28;20117;-81
2023/06/10 05:22:07;;;;;;;16.88;11.57;;;;;;;;;;5072972;28;20090;-81
2023/06/10 05:24:34;;;;;;;23.00;11.07;;;;;;;;;;5075780;28;20055;-82
2023/06/10 05:27:01;;;;;;;18.23;10.93;;;;;;;;;;5076099;28;20048;-81
2023/06/10 05:29:27;;;;;;;17.40;11.68;;;;;;;;;;5076671;28;20290;-81
2023/06/10 05:31:56;;;;;;;19.88;11.90;;;;;;;;;;5077102;28;20048;-82
2023/06/10 05:34:23;;;;;;;17.15;11.10;;;;;;;;;;5078466;28;20113;-82
2023/06/10 05:36:53;;;;;;;18.13;11.00;;;;;;;;;;5071136;28;20064;-82
2023/06/10 05:39:19;;;;;;;18.98;11.25;;;;;;;;;;5070524;28;20048;-81
2023/06/10 05:41:46;;;;;;;19.35;11.63;;;;;;;;;;5062448;28;20063;-81
2023/06/10 05:44:13;;;;;;;14.70;10.77;;;;;;;;;;5059250;28;20103;-82
2023/06/10 05:46:45;;;;;;;17.25;11.20;;;;;;;;;;5066437;28;20044;-80
2023/06/10 05:49:12;;;;;;;17.85;10.90;;;;;;;;;;5060308;28;20135;-79
2023/06/10 05:51:39;;;;;;;16.95;10.70;;;;;;;;;;5060869;28;20125;-80
2023/06/10 05:54:05;;;;;;;15.45;10.30;;;;;;;;;;5060968;28;20094;-81
2023/06/10 05:56:32;;;;;;;14.80;10.15;;;;;;;;;;5057800;28;20059;-81
2023/06/10 05:58:59;;;;;;;17.02;10.00;;;;;;;;;;5059151;28;20049;-79
2023/06/10 06:01:25;;;;;;;19.35;9.95;;;;;;;;;;5058140;28;20429;-80
2023/06/10 06:03:52;;;;;;;16.77;10.50;;;;;;;;;;5060866;28;20076;-79
2023/06/10 06:06:20;;;;;;;15.18;9.98;;;;;;;;;;5031968;28;20402;-80
2023/06/10 06:08:48;;;;;;;14.05;9.90;;;;;;;;;;5032844;28;20108;-81
2023/06/10 06:11:14;;;;;;;17.52;10.05;;;;;;;;;;5046674;28;20057;-80
2023/06/10 06:13:42;;;;;;;16.20;8.90;;;;;;;;;;5047335;28;20049;-78
2023/06/10 06:16:08;;;;;;;15.68;9.32;;;;;;;;;;5049410;28;20525;-81
2023/06/10 06:18:35;;;;;;;12.75;8.77;;;;;;;;;;5047933;28;20679;-81
2023/06/10 06:21:02;;;;;;;13.10;8.98;;;;;;;;;;5057312;28;20118;-80
2023/06/10 06:23:28;;;;;;;12.23;8.70;;;;;;;;;;5061669;28;20045;-81
2023/06/10 06:25:55;;;;;;;12.02;8.45;;;;;;;;;;5057348;28;20111;-81
2023/06/10 06:28:22;;;;;;;14.90;8.52;;;;;;;;;;5060750;28;20135;-79
2023/06/10 06:30:49;;;;;;;12.35;8.52;;;;;;;;;;5058442;28;20056;-80
2023/06/10 06:33:15;;;;;;;14.35;8.60;;;;;;;;;;5059256;28;20473;-80
2023/06/10 06:35:43;;;;;;;14.90;8.95;;;;;;;;;;5064117;28;20040;-81
2023/06/10 06:38:09;;;;;;;14.23;8.60;;;;;;;;;;5063719;28;20255;-81
2023/06/10 06:40:36;;;;;;;12.55;8.63;;;;;;;;;;5049076;28;20128;-80
2023/06/10 06:43:03;;;;;;;26.75;9.35;;;;;;;;;;5069892;28;20048;-80
2023/06/10 06:45:35;;;;;;;16.13;10.43;;;;;;;;;;5078876;28;20119;-80
2023/06/10 06:48:02;;;;;;;15.88;9.55;;;;;;;;;;5069748;28;20550;-78
2023/06/10 06:50:29;;;;;;;11.98;8.70;;;;;;;;;;5069205;28;20048;-80
2023/06/10 06:52:56;;;;;;;14.32;8.20;;;;;;;;;;5063411;28;20059;-79
2023/06/10 06:55:22;;;;;;;14.50;8.40;;;;;;;;;;5061240;28;20094;-79
2023/06/10 06:57:49;;;;;;;16.50;9.32;;;;;;;;;;5056651;28;20055;-80
2023/06/10 07:00:16;;;;;;;13.65;9.10;;;;;;;;;;5056473;28;20128;-81
2023/06/10 07:02:42;;;;;;;15.00;9.13;;;;;;;;;;5057165;28;20064;-81
2023/06/10 07:05:09;;;;;;;11.93;8.27;;;;;;;;;;5055534;28;20055;-82
2023/06/10 07:07:37;;;;;;;10.13;7.80;;;;;;;;;;5057394;28;20049;-84
2023/06/10 07:10:05;;;;;;;15.05;8.20;;;;;;;;;;5069478;28;20052;-83
2023/06/10 07:12:32;;;;;;;11.48;8.13;;;;;;;;;;5080213;28;20048;-84
2023/06/10 07:14:59;;;;;;;16.23;8.25;;;;;;;;;;5076862;28;20037;-82
2023/06/10 07:17:26;;;;;;;12.05;8.38;;;;;;;;;;5069564;28;20068;-80
2023/06/10 07:19:57;;;;;;;12.45;7.85;;;;;;;;;;5064268;28;20054;-83
2023/06/10 07:22:23;;;;;;;12.50;7.97;;;;;;;;;;5074007;28;20059;-82
2023/06/10 07:24:51;;;;;;;11.10;7.82;;;;;;;;;;5073431;28;20076;-79
2023/06/10 07:27:18;;;;;;;13.82;8.60;;;;;;;;;;5069926;28;20044;-82
2023/06/10 07:29:45;;;;;;;13.55;7.60;;;;;;;;;;5059399;28;20071;-80
2023/06/10 07:32:11;;;;;;;12.73;8.00;;;;;;;;;;5051159;28;20057;-84
2023/06/10 07:34:38;;;;;;;11.05;7.68;;;;;;;;;;5059245;28;20048;-82
2023/06/10 07:37:05;;;;;;;11.70;7.65;;;;;;;;;;5071731;28;20112;-82
2023/06/10 07:39:31;;;;;;;13.82;7.70;;;;;;;;;;5060854;28;20119;-83
2023/06/10 07:41:58;;;;;;;10.50;7.53;;;;;;;;;;5060275;28;20048;-82
2023/06/10 07:44:25;;;;;;;11.90;7.38;;;;;;;;;;5075351;28;20051;-83
2023/06/10 07:46:52;;;;;;;12.65;7.40;;;;;;;;;;5060352;28;20467;-80
2023/06/10 07:49:18;;;;;;;12.40;7.53;;;;;;;;;;5058776;28;20069;-84
2023/06/10 07:51:48;;;;;;;13.73;8.13;;;;;;;;;;5056613;28;20132;-80
2023/06/10 07:54:15;;;;;;;10.57;7.07;;;;;;;;;;5058491;28;20048;-83
2023/06/10 07:56:43;;;;;;;10.23;7.22;;;;;;;;;;5067600;28;20045;-84
2023/06/10 07:59:10;;;;;;;12.48;7.28;;;;;;;;;;5065333;28;20044;-84
2023/06/10 08:01:39;;;;;;;14.77;6.25;;;;;;;;;;5053223;28;20037;-84
2023/06/10 08:04:05;;;;;;;13.30;6.45;;;;;;;;;;5057995;28;20061;-83
2023/06/10 08:06:32;;;;;;;12.75;5.68;;;;;;;;;;5057664;28;20045;-84
2023/06/10 08:09:00;;;;;;;9.10;5.90;;;;;;;;;;5064933;28;20072;-81
2023/06/10 08:11:28;;;;;;;13.18;5.97;;;;;;;;;;5070197;28;20096;-81
2023/06/10 08:13:55;;;;;;;8.20;5.72;;;;;;;;;;5076050;28;20077;-82
2023/06/10 08:16:21;;;;;;;9.88;6.10;;;;;;;;;;5056158;28;20057;-82
2023/06/10 08:18:50;;;;;;;9.60;6.30;;;;;;;;;;5077194;28;20044;-81
2023/06/10 08:21:21;;;;;;;7.95;5.80;;;;;;;;;;5064624;28;20135;-83
2023/06/10 08:23:47;;;;;;;11.43;6.10;;;;;;;;;;5053083;28;20040;-83
2023/06/10 08:26:14;;;;;;;7.10;5.32;;;;;;;;;;5075061;28;20537;-82
2023/06/10 08:28:42;;;;;;;10.70;5.30;;;;;;;;;;5071801;28;20319;-81
2023/06/10 08:31:09;;;;;;;11.70;6.20;;;;;;;;;;5057204;28;20122;-81
2023/06/10 08:33:35;;;;;;;8.02;6.05;;;;;;;;;;5058317;28;20044;-81
2023/06/10 08:36:02;;;;;;;9.25;6.45;;;;;;;;;;5070776;28;20154;-82
2023/06/10 08:38:29;;;;;;;11.20;6.32;;;;;;;;;;5061829;28;20259;-81
2023/06/10 08:40:56;;;;;;;13.88;6.30;;;;;;;;;;5061545;28;21000;-80
2023/06/10 08:43:30;;;;;;;12.95;5.88;;;;;;;;;;5047388;28;20052;-82
2023/06/10 08:46:01;;;;;;;12.80;6.25;;;;;;;;;;5069276;28;20056;-83
2023/06/10 08:48:32;;;;;;;11.82;5.60;;;;;;;;;;5058651;28;20072;-81
2023/06/10 08:50:59;;;;;;;11.52;5.88;;;;;;;;;;5057120;28;20041;-81
2023/06/10 08:53:26;;;;;;;11.82;5.90;;;;;;;;;;5074142;28;20133;-83
2023/06/10 08:55:57;;;;;;;8.10;6.07;;;;;;;;;;5062825;28;20187;-81
2023/06/10 08:58:23;;;;;;;9.48;6.35;;;;;;;;;;5078138;28;20137;-83
2023/06/10 09:00:50;;;;;;;8.93;6.13;;;;;;;;;;5064679;28;20064;-82
2023/06/10 09:03:17;;;;;;;10.85;6.28;;;;;;;;;;5055935;28;20048;-82
2023/06/10 09:05:44;;;;;;;11.40;5.78;;;;;;;;;;5060236;28;20085;-81
2023/06/10 09:08:11;;;;;;;7.18;5.25;;;;;;;;;;5078620;28;20070;-83
2023/06/10 09:10:38;;;;;;;12.85;6.35;;;;;;;;;;5077684;28;20036;-81
2023/06/10 09:13:05;;;;;;;11.20;6.18;;;;;;;;;;5071057;28;20044;-80
2023/06/10 09:15:31;;;;;;;9.05;5.40;;;;;;;;;;5075184;28;20211;-80
2023/06/10 09:17:59;;;;;;;9.15;5.38;;;;;;;;;;5060756;28;20144;-80
2023/06/10 09:20:26;;;;;;;12.07;5.38;;;;;;;;;;5073285;28;20079;-81
2023/06/10 09:22:53;;;;;;;9.45;5.60;;;;;;;;;;5070263;28;20067;-83
2023/06/10 09:25:33;;;;;;;7.95;5.50;;;;;;;;;;5065590;28;20468;-81
2023/06/10 09:28:00;;;;;;;10.35;5.85;;;;;;;;;;5077221;28;20044;-83
2023/06/10 09:30:27;;;;;;;11.60;5.90;;;;;;;;;;5057940;28;20071;-82
2023/06/10 09:32:58;;;;;;;9.50;5.25;;;;;;;;;;5079971;28;20052;-83
2023/06/10 09:35:26;;;;;;;9.43;5.43;;;;;;;;;;5067939;28;20047;-80
2023/06/10 09:37:54;;;;;;;12.20;5.45;;;;;;;;;;5051801;28;20044;-81
2023/06/10 09:40:23;;;;;;;13.35;6.10;;;;;;;;;;5039592;28;20045;-82
2023/06/10 09:42:54;;;;;;;8.43;5.40;;;;;;;;;;5055170;28;20073;-81
2023/06/10 09:45:22;;;;;;;13.98;5.55;;;;;;;;;;5052410;28;20112;-82
2023/06/10 09:47:51;;;;;;;11.07;5.75;;;;;;;;;;5075723;28;20109;-81
2023/06/10 09:50:18;;;;;;;8.57;5.00;;;;;;;;;;5070112;28;20350;-82
2023/06/10 09:55:19;;;;;;;;;;;;;;;;;;5057326;27;1271715;-82
2023/06/10 09:57:48;;;;;;;8.75;4.68;;;;;;;;;;5076071;28;20288;-82
2023/06/10 10:00:16;;;;;;;7.32;4.80;;;;;;;;;;5071002;28;20268;-81
2023/06/10 10:02:50;;;;;;;8.10;4.57;;;;;;;;;;5068375;28;20065;-80
2023/06/10 10:05:18;;;;;;;8.25;4.55;;;;;;;;;;5063612;28;20041;-84
2023/06/10 10:07:45;;;;;;;8.88;4.55;;;;;;;;;;5063888;28;20055;-83
2023/06/10 10:10:13;;;;;;;6.18;4.07;;;;;;;;;;5048301;28;20049;-80
2023/06/10 10:12:40;;;;;;;5.70;3.90;;;;;;;;;;5052695;28;20048;-83
2023/06/10 10:15:08;;;;;;;7.88;3.72;;;;;;;;;;5048173;28;20113;-83
2023/06/10 10:17:40;;;;;;;7.43;3.83;;;;;;;;;;5051238;28;20131;-81
2023/06/10 10:20:08;;;;;;;7.00;4.10;;;;;;;;;;5064827;28;20061;-80
2023/06/10 10:22:39;;;;;;;11.52;4.43;;;;;;;;;;5054227;28;20133;-82
2023/06/10 10:25:08;;;;;;;8.32;3.97;;;;;;;;;;5059436;28;20475;-84
2023/06/10 10:27:36;;;;;;;6.43;4.03;;;;;;;;;;5064278;28;20047;-84
2023/06/10 10:30:08;;;;;;;8.57;4.75;;;;;;;;;;5058753;28;20060;-82
2023/06/10 10:32:37;;;;;;;7.25;4.40;;;;;;;;;;5068799;28;20053;-83
2023/06/10 10:35:09;;;;;;;5.93;4.60;;;;;;;;;;5075529;28;20049;-82
2023/06/10 10:37:37;;;;;;;6.68;4.50;;;;;;;;;;5067930;28;20439;-80
2023/06/10 10:40:03;;;;;;;13.55;5.05;;;;;;;;;;5045965;28;20064;-83
2023/06/10 10:42:30;;;;;;;10.00;4.28;;;;;;;;;;5057905;28;20088;-81
2023/06/10 10:44:58;;;;;;;7.35;4.63;;;;;;;;;;5049436;28;20565;-84
2023/06/10 10:47:26;;;;;;;9.40;4.68;;;;;;;;;;5067724;28;20037;-84
2023/06/10 10:49:53;;;;;;;10.48;4.25;;;;;;;;;;5059884;28;20119;-81
2023/06/10 10:52:20;;;;;;;8.05;4.45;;;;;;;;;;5058964;28;20107;-81
2023/06/10 10:54:47;;;;;;;7.30;4.20;;;;;;;;;;5059182;28;20056;-79
2023/06/10 10:57:18;;;;;;;8.80;5.00;;;;;;;;;;5069200;28;20049;-82
2023/06/10 10:59:48;;;;;;;8.70;4.60;;;;;;;;;;5081691;28;20049;-83
2023/06/10 11:02:38;;;;;;;6.18;4.30;;;;;;;;;;5077169;28;20065;-82
2023/06/10 11:05:06;;;;;;;8.57;4.15;;;;;;;;;;5072394;28;20045;-82
2023/06/10 11:07:34;;;;;;;7.13;4.07;;;;;;;;;;5039958;28;20144;-83
2023/06/10 11:10:10;;;;;;;8.07;3.92;;;;;;;;;;5034436;28;20046;-81
2023/06/10 11:12:46;;;;;;;7.70;3.92;;;;;;;;;;5043729;28;20601;-82
2023/06/10 11:15:13;;;;;;;9.20;3.95;;;;;;;;;;5055830;28;20098;-82
2023/06/10 11:17:58;;;;;;;9.32;4.35;;;;;;;;;;5030082;28;20419;-79
2023/06/10 11:20:45;;;;;;;7.72;3.60;;;;;;;;;;5062826;28;20567;-82
2023/06/10 11:23:24;;;;;;;9.88;3.75;;;;;;;;;;5036324;28;20725;-81
2023/06/10 11:26:09;;;;;;;7.18;4.00;;;;;;;;;;5031739;28;20164;-80
2023/06/10 11:28:35;;;;;;;5.47;4.20;;;;;;;;;;5056358;28;20053;-81
2023/06/10 11:31:02;;;;;;;8.77;4.13;;;;;;;;;;5051646;28;20060;-81
2023/06/10 11:33:29;;;;;;;6.68;3.70;;;;;;;;;;5046677;28;20044;-80
2023/06/10 11:35:56;;;;;;;5.95;3.90;;;;;;;;;;5040586;28;20452;-80
2023/06/10 11:38:23;;;;;;;7.20;3.90;;;;;;;;;;5008739;28;20042;-81
2023/06/10 11:40:52;;;;;;;6.75;3.67;;;;;;;;;;5024529;28;20049;-80
2023/06/10 11:43:20;;;;;;;6.00;4.05;;;;;;;;;;5034122;28;20052;-80
2023/06/10 11:45:47;;;;;;;5.82;3.78;;;;;;;;;;5033689;28;20080;-81
2023/06/10 11:48:14;;;;;;;7.63;4.03;;;;;;;;;;5030404;28;20414;-80
2023/06/10 11:50:41;;;;;;;7.20;4.13;;;;;;;;;;5028912;28;20064;-81
2023/06/10 11:53:08;;;;;;;6.05;3.78;;;;;;;;;;5038322;28;20060;-80
2023/06/10 11:55:45;;;;;;;8.70;3.83;;;;;;;;;;5033328;28;20042;-81
2023/06/10 11:58:22;;;;;;;9.52;3.97;;;;;;;;;;5034266;28;20057;-80
2023/06/10 12:00:50;;;;;;;4.65;3.38;;;;;;;;;;5035844;28;20059;-81
2023/06/10 12:03:17;;;;;;;5.90;3.60;;;;;;;;;;5033559;28;20509;-80
2023/06/10 12:05:58;;;;;;;7.78;3.67;;;;;;;;;;5033385;28;20053;-81
2023/06/10 12:08:25;;;;;;;6.68;3.45;;;;;;;;;;5036025;28;20041;-80
2023/06/10 12:10:52;;;;;;;9.35;3.40;;;;;;;;;;5036876;28;20056;-81
2023/06/10 12:13:18;;;;;;;5.70;3.72;;;;;;;;;;5035725;28;20045;-81
2023/06/10 12:15:46;;;;;;;6.35;3.80;;;;;;;;;;5036680;28;20046;-80
2023/06/10 12:18:19;;;;;;;10.90;3.88;;;;;;;;;;5034218;28;20054;-80
2023/06/10 12:20:46;;;;;;;6.65;3.80;;;;;;;;;;5035137;28;20136;-79
2023/06/10 12:23:13;;;;;;;5.43;3.80;;;;;;;;;;5039659;28;20042;-81
2023/06/10 12:25:49;;;;;;;6.85;4.10;;;;;;;;;;5038445;28;20041;-81
2023/06/10 12:28:17;;;;;;;6.32;3.78;;;;;;;;;;5039456;28;20053;-81
2023/06/10 12:30:44;;;;;;;10.13;3.88;;;;;;;;;;5039827;28;20049;-81
2023/06/10 12:33:17;;;;;;;5.85;3.63;;;;;;;;;;5038615;28;20100;-82
2023/06/10 12:35:50;;;;;;;5.05;3.60;;;;;;;;;;5038637;28;20053;-82
2023/06/10 12:38:28;;;;;;;4.50;3.58;;;;;;;;;;5039216;28;20050;-82
2023/06/10 12:41:05;;;;;;;7.68;3.83;;;;;;;;;;5037040;28;20067;-80
2023/06/10 12:43:32;;;;;;;7.30;3.70;;;;;;;;;;5038959;28;20053;-82
2023/06/10 12:46:09;;;;;;;7.07;3.90;;;;;;;;;;5040253;28;20048;-83
2023/06/10 12:48:36;;;;;;;8.52;3.88;;;;;;;;;;5048782;28;20136;-82
2023/06/10 12:51:03;;;;;;;6.30;3.53;;;;;;;;;;5057627;28;20086;-81
2023/06/10 12:53:29;;;;;;;8.10;3.80;;;;;;;;;;5048060;28;20056;-83
2023/06/10 12:55:57;;;;;;;5.20;3.80;;;;;;;;;;5038863;28;20037;-82
2023/06/10 12:58:24;;;;;;;4.72;3.80;;;;;;;;;;5041076;28;20501;-83
2023/06/10 13:00:52;;;;;;;6.25;3.58;;;;;;;;;;5037982;28;20064;-81
2023/06/10 13:03:20;;;;;;;6.40;4.15;;;;;;;;;;5040088;28;20533;-84
2023/06/10 13:05:47;;;;;;;8.15;3.50;;;;;;;;;;5040920;28;20045;-80
2023/06/10 13:08:13;;;;;;;10.93;3.83;;;;;;;;;;5040068;28;20080;-84
2023/06/10 13:10:40;;;;;;;5.40;3.47;;;;;;;;;;5036516;28;20053;-81
2023/06/10 13:13:09;;;;;;;7.10;3.65;;;;;;;;;;5037001;28;20505;-82
2023/06/10 13:15:36;;;;;;;8.75;3.65;;;;;;;;;;5034435;28;20057;-83
2023/06/10 13:18:08;;;;;;;6.07;3.65;;;;;;;;;;5037785;28;20045;-81
2023/06/10 13:20:35;;;;;;;8.73;3.53;;;;;;;;;;5037901;28;20052;-81
2023/06/10 13:23:03;;;;;;;11.25;3.92;;;;;;;;;;5036366;28;20049;-82
2023/06/10 13:25:29;;;;;;;9.88;3.60;;;;;;;;;;5038897;28;20042;-82
2023/06/10 13:27:56;;;;;;;7.65;3.92;;;;;;;;;;5038457;28;20159;-82
2023/06/10 13:30:23;;;;;;;7.25;3.65;;;;;;;;;;5038903;28;20140;-82
2023/06/10 13:32:50;;;;;;;8.63;3.63;;;;;;;;;;5038390;28;20052;-81
2023/06/10 13:35:16;;;;;;;11.82;3.55;;;;;;;;;;5034211;28;20050;-80
2023/06/10 13:37:43;;;;;;;7.10;3.88;;;;;;;;;;5034748;28;20073;-80
2023/06/10 13:40:10;;;;;;;6.07;3.85;;;;;;;;;;5030151;28;20144;-80
2023/06/10 13:42:37;;;;;;;6.82;3.90;;;;;;;;;;5035212;28;20048;-80
2023/06/10 13:45:04;;;;;;;11.75;3.70;;;;;;;;;;5035885;28;20489;-80
2023/06/10 13:47:31;;;;;;;6.25;2.90;;;;;;;;;;5035024;28;20045;-81
2023/06/10 13:50:00;;;;;;;6.15;3.60;;;;;;;;;;5036077;28;20054;-81
2023/06/10 13:52:27;;;;;;;7.50;3.60;;;;;;;;;;5043663;28;20058;-82
2023/06/10 13:54:57;;;;;;;8.60;3.60;;;;;;;;;;5037096;28;20759;-82
2023/06/10 13:57:23;;;;;;;8.18;3.63;;;;;;;;;;5037622;28;20146;-81
2023/06/10 13:59:50;;;;;;;7.13;3.83;;;;;;;;;;5035571;28;20041;-80
2023/06/10 14:02:17;;;;;;;5.13;3.50;;;;;;;;;;5033533;28;20049;-82
2023/06/10 14:04:43;;;;;;;5.07;3.45;;;;;;;;;;5036668;28;20049;-83
2023/06/10 14:07:10;;;;;;;5.40;3.50;;;;;;;;;;5037403;28;20057;-81
2023/06/10 14:09:37;;;;;;;5.03;3.05;;;;;;;;;;5036821;28;20049;-83
2023/06/10 14:12:05;;;;;;;6.20;3.58;;;;;;;;;;5036912;28;20125;-80
2023/06/10 14:14:33;;;;;;;12.48;3.90;;;;;;;;;;5037043;28;20045;-80
2023/06/10 14:16:59;;;;;;;9.65;3.55;;;;;;;;;;5037994;28;20037;-80
2023/06/10 14:19:26;;;;;;;9.73;3.42;;;;;;;;;;5032967;28;20141;-81
2023/06/10 14:21:55;;;;;;;6.07;3.40;;;;;;;;;;5037402;28;20064;-82
2023/06/10 14:24:21;;;;;;;5.28;3.13;;;;;;;;;;5035830;28;20061;-81
2023/06/10 14:26:52;;;;;;;11.50;3.63;;;;;;;;;;5018311;28;20041;-81
2023/06/10 14:29:19;;;;;;;4.63;3.38;;;;;;;;;;5035731;28;20536;-80
2023/06/10 14:31:46;;;;;;;10.30;3.60;;;;;;;;;;5035374;28;20063;-82
2023/06/10 14:34:12;;;;;;;5.05;3.35;;;;;;;;;;5038565;28;20124;-80
2023/06/10 14:36:39;;;;;;;7.00;3.30;;;;;;;;;;5035470;28;20046;-81
2023/06/10 14:39:06;;;;;;;5.82;3.42;;;;;;;;;;5037780;28;20587;-84
2023/06/10 14:41:32;;;;;;;5.13;3.20;;;;;;;;;;5040892;28;21078;-83